Terminal Aerodrome Forecast
Issued by NWS Louisville, KY

Home | Current Version | Previous Version | Text Only | Print | Product List | Glossary On
Versions: 1 2 3 4 5 6 7 8 9 10 11 12 13 14 15 16 17 18 19 20 21 22 23 24 25 26 27 28 29 30 31
000
FTUS43 KLMK 031000 AAA
TAFSDF
TAF AMD
KSDF 031053Z 0311/0412 14006KT P6SM SCT025 BKN035
      TEMPO 0311/0312 BKN025
     FM031200 15007KT 6SM BR VCSH BKN015
      TEMPO 0313/0317 4SM -SHRA BR BKN008
     FM031700 20012G17KT 3SM -SHRA BR BKN008
     FM040100 23012KT 2SM -RA BR BKN005
     FM040600 31010KT 5SM -RA BR BKN008=

USA.gov is the U.S. government's official web portal to all federal, state and local government web resources and services.